Time;durP1;ratioP1;P1;durP2;ratioP2;P2;SDS_P1;SDS_P2;PMS_P1;PMS_P2;Temp;Humidity;BMP_temperature;BMP_pressure;BME280_temperature;BME280_humidity;BME280_pressure;Samples;Min_cycle;Max_cycle;Signal;HPM_P1;HPM_P2
2021/11/30 00:01:52;;;;;;;14.57;8.17;;;;;;;-0.12;100.00;99896.81;4994292;28;20077;-85
2021/11/30 00:04:23;;;;;;;16.93;7.70;;;;;;;-0.09;100.00;99899.41;4982302;28;20049;-84
2021/11/30 00:06:55;;;;;;;15.20;7.93;;;;;;;-0.08;100.00;99896.00;5008948;28;20045;-86
2021/11/30 00:11:51;;;;;;;12.40;7.13;;;;;;;-0.08;100.00;99890.81;5024332;28;20110;-83
2021/11/30 00:14:17;;;;;;;10.90;6.70;;;;;;;-0.11;100.00;99888.16;5007828;28;20604;-84
2021/11/30 00:16:44;;;;;;;11.47;6.13;;;;;;;-0.05;100.00;99880.44;5020641;28;20042;-86
2021/11/30 00:19:11;;;;;;;13.67;7.43;;;;;;;-0.10;100.00;99876.91;5015358;28;20050;-84
2021/11/30 00:21:37;;;;;;;13.27;6.83;;;;;;;-0.07;100.00;99881.28;5000913;28;20049;-84
2021/11/30 00:24:04;;;;;;;12.23;6.60;;;;;;;-0.07;100.00;99873.50;5000335;28;20081;-85
2021/11/30 00:26:36;;;;;;;12.17;6.43;;;;;;;-0.05;100.00;99871.78;5005043;28;20119;-85
2021/11/30 00:29:04;;;;;;;12.00;7.20;;;;;;;-0.08;100.00;99866.56;5012520;28;20111;-85
2021/11/30 00:31:31;;;;;;;13.30;7.10;;;;;;;0.03;100.00;99875.31;4993423;28;20045;-85
2021/11/30 00:34:01;;;;;;;12.07;6.90;;;;;;;0.00;100.00;99870.09;5000147;28;20042;-85
2021/11/30 00:36:27;;;;;;;12.30;6.70;;;;;;;0.10;100.00;99866.72;5019241;28;20036;-85
2021/11/30 00:38:54;;;;;;;12.70;6.27;;;;;;;0.08;100.00;99880.53;5012795;28;20069;-85
2021/11/30 00:41:21;;;;;;;14.07;6.93;;;;;;;0.13;100.00;99881.47;4998256;28;20049;-86
2021/11/30 00:43:48;;;;;;;15.13;7.30;;;;;;;0.12;100.00;99880.59;4991983;28;20038;-85
2021/11/30 00:46:20;;;;;;;13.33;7.43;;;;;;;0.13;100.00;99876.28;4991075;28;20046;-85
2021/11/30 00:48:47;;;;;;;14.10;7.90;;;;;;;0.14;100.00;99881.47;5037377;28;20049;-87
2021/11/30 00:51:17;;;;;;;15.17;7.67;;;;;;;0.19;100.00;99877.19;5000949;28;20099;-84
2021/11/30 00:53:46;;;;;;;12.27;6.87;;;;;;;0.21;100.00;99866.81;4985457;28;20056;-85
2021/11/30 00:56:13;;;;;;;14.83;7.40;;;;;;;0.22;100.00;99868.56;5000649;28;20190;-87
2021/11/30 00:58:40;;;;;;;16.70;9.17;;;;;;;0.19;100.00;99863.34;5006720;23;20038;-83
2021/11/30 01:01:07;;;;;;;14.30;7.63;;;;;;;0.25;100.00;99859.09;4998759;28;20074;-83
2021/11/30 01:03:34;;;;;;;14.63;8.17;;;;;;;0.28;100.00;99853.91;4990626;28;20053;-83
2021/11/30 01:06:01;;;;;;;15.73;7.80;;;;;;;0.21;100.00;99844.31;5002621;28;20042;-84
2021/11/30 01:08:28;;;;;;;15.40;8.67;;;;;;;0.25;100.00;99833.09;4992753;28;20128;-84
2021/11/30 01:10:55;;;;;;;12.97;6.83;;;;;;;0.22;100.00;99837.38;4982411;28;20133;-83
2021/11/30 01:13:21;;;;;;;12.90;7.23;;;;;;;0.20;100.00;99818.31;4988930;28;20038;-84
2021/11/30 01:15:48;;;;;;;16.07;7.73;;;;;;;0.19;100.00;99821.78;4982485;28;20070;-83
2021/11/30 01:18:15;;;;;;;15.37;8.13;;;;;;;0.21;100.00;99817.47;4970539;28;20482;-84
2021/11/30 01:20:42;;;;;;;14.70;7.47;;;;;;;0.20;100.00;99814.00;4990399;28;20057;-84
2021/11/30 01:23:09;;;;;;;14.47;8.13;;;;;;;0.21;100.00;99807.06;4981275;28;20553;-84
2021/11/30 01:25:36;;;;;;;14.73;7.67;;;;;;;0.19;100.00;99809.66;4997119;28;20048;-84
2021/11/30 01:28:03;;;;;;;12.80;7.23;;;;;;;0.25;100.00;99812.31;5002533;28;20062;-84
2021/11/30 01:30:30;;;;;;;25.80;7.30;;;;;;;0.24;100.00;99807.94;4962192;28;20054;-83
2021/11/30 01:32:56;;;;;;;14.50;8.03;;;;;;;0.23;100.00;99810.53;4991474;28;20045;-84
2021/11/30 01:35:23;;;;;;;14.93;7.77;;;;;;;0.21;100.00;99807.06;4978642;28;20042;-83
2021/11/30 01:37:50;;;;;;;14.83;8.40;;;;;;;0.21;100.00;99807.06;4963916;28;20038;-83
2021/11/30 01:40:20;;;;;;;12.10;6.73;;;;;;;0.22;100.00;99801.03;4983624;28;20108;-84
2021/11/30 01:42:49;;;;;;;12.60;7.93;;;;;;;0.26;100.00;99792.41;4976476;28;20042;-84
2021/11/30 01:50:37;;;;;;;13.20;7.30;;;;;;;0.25;100.00;99785.44;5000438;28;20084;-83
2021/11/30 01:53:05;;;;;;;16.20;8.33;;;;;;;0.33;100.00;99795.88;5004457;28;20041;-84
2021/11/30 01:55:32;;;;;;;14.30;8.30;;;;;;;0.38;100.00;99789.88;4988184;28;20100;-85
2021/11/30 01:58:00;;;;;;;14.33;8.80;;;;;;;0.57;100.00;99778.72;4981820;28;20044;-84
2021/11/30 02:00:28;;;;;;;15.80;8.37;;;;;;;0.51;100.00;99783.03;4997656;28;20046;-83
2021/11/30 02:02:55;;;;;;;16.67;8.87;;;;;;;0.52;100.00;99783.03;4981464;28;20407;-83
2021/11/30 02:05:22;;;;;;;15.83;8.77;;;;;;;0.52;100.00;99785.66;4995314;28;20041;-84
2021/11/30 02:07:49;;;;;;;15.63;8.10;;;;;;;0.51;100.00;99772.66;4971676;28;20050;-84
2021/11/30 02:10:17;;;;;;;16.80;8.77;;;;;;;0.54;100.00;99765.72;5012203;28;20048;-83
2021/11/30 02:12:44;;;;;;;16.13;8.67;;;;;;;0.55;100.00;99764.00;4985823;28;20042;-82
2021/11/30 02:15:12;;;;;;;18.93;9.07;;;;;;;0.60;100.00;99751.03;5027790;28;20045;-81
2021/11/30 02:17:40;;;;;;;18.13;9.37;;;;;;;0.55;100.00;99754.47;4982237;28;20046;-82
2021/11/30 02:20:09;;;;;;;15.37;8.70;;;;;;;0.53;100.00;99750.13;4985447;28;20061;-81
2021/11/30 02:22:36;;;;;;;16.00;8.97;;;;;;;0.48;100.00;99741.44;5001496;28;20495;-82
2021/11/30 02:25:05;;;;;;;19.07;10.00;;;;;;;0.50;100.00;99743.16;4993930;28;20049;-83
2021/11/30 02:27:31;;;;;;;18.20;9.97;;;;;;;0.56;100.00;99738.00;4992274;28;20053;-82
2021/11/30 02:29:58;;;;;;;19.70;9.90;;;;;;;0.55;100.00;99725.88;4987708;28;20406;-83
2021/11/30 02:32:25;;;;;;;18.83;10.23;;;;;;;0.61;100.00;99714.66;5000176;28;20115;-83
2021/11/30 02:34:52;;;;;;;20.47;10.37;;;;;;;0.62;100.00;99697.31;4993673;28;20060;-82
2021/11/30 02:37:24;;;;;;;19.30;10.33;;;;;;;0.59;100.00;99702.50;4986630;28;20062;-83
2021/11/30 02:39:51;;;;;;;18.80;9.27;;;;;;;0.57;100.00;99697.28;4999092;28;20487;-84
2021/11/30 02:42:18;;;;;;;20.87;9.90;;;;;;;0.63;100.00;99683.47;5004767;28;20042;-83
2021/11/30 02:44:45;;;;;;;18.40;9.40;;;;;;;0.57;100.00;99679.09;5008988;28;20041;-84
2021/11/30 02:47:13;;;;;;;20.20;9.90;;;;;;;0.58;100.00;99680.81;4972547;28;20046;-82
2021/11/30 02:49:42;;;;;;;21.80;9.93;;;;;;;0.59;100.00;99674.78;4997758;28;20041;-82
2021/11/30 02:52:14;;;;;;;20.27;10.53;;;;;;;0.61;100.00;99680.88;4973013;28;20053;-82
2021/11/30 02:54:43;;;;;;;20.60;9.97;;;;;;;0.57;100.00;99679.97;4984398;28;20048;-84
2021/11/30 02:57:12;;;;;;;20.37;9.67;;;;;;;0.57;100.00;99685.16;4990467;28;20069;-82
2021/11/30 02:59:42;;;;;;;19.43;9.63;;;;;;;0.69;100.00;99676.56;4980741;28;20042;-82
2021/11/30 03:02:21;;;;;;;21.60;10.57;;;;;;;0.76;100.00;99665.31;4972418;28;20565;-83
2021/11/30 03:04:51;;;;;;;20.03;10.80;;;;;;;0.74;100.00;99658.34;4987701;28;20042;-81
2021/11/30 03:07:31;;;;;;;19.80;9.23;;;;;;;0.72;100.00;99631.50;5007595;28;20081;-81
2021/11/30 03:09:58;;;;;;;19.80;9.27;;;;;;;0.71;100.00;99627.16;5000410;28;20598;-82
2021/11/30 03:12:25;;;;;;;19.50;9.47;;;;;;;0.77;100.00;99629.78;5010078;28;20674;-80
2021/11/30 03:14:51;;;;;;;17.57;9.90;;;;;;;0.75;100.00;99628.91;4972845;28;20052;-80
2021/11/30 03:17:18;;;;;;;20.43;9.83;;;;;;;0.83;100.00;99620.25;4997112;28;20644;-82
2021/11/30 03:19:45;;;;;;;22.57;11.17;;;;;;;0.92;100.00;99616.81;4992140;28;20050;-82
2021/11/30 03:22:12;;;;;;;21.10;10.63;;;;;;;0.79;100.00;99610.72;4988417;28;20092;-84
2021/11/30 03:24:38;;;;;;;21.70;11.37;;;;;;;0.81;100.00;99603.78;4987195;28;20046;-82
2021/11/30 03:27:05;;;;;;;20.73;10.33;;;;;;;0.80;100.00;99593.38;4992688;28;20049;-82
2021/11/30 03:29:32;;;;;;;23.07;11.00;;;;;;;0.79;100.00;99595.13;5006309;28;20050;-81
2021/11/30 03:33:58;;;;;;;22.27;12.10;;;;;;;0.80;100.00;99594.25;4987342;28;20042;-81
2021/11/30 03:34:54;;;;;;;25.87;12.77;;;;;;;0.84;100.00;99574.31;5007499;28;20406;-80
2021/11/30 03:37:20;;;;;;;25.27;12.60;;;;;;;0.84;100.00;99564.81;4976427;28;20430;-81
2021/11/30 03:39:47;;;;;;;21.50;11.10;;;;;;;0.80;100.00;99562.19;5004152;28;20050;-83
2021/11/30 03:42:14;;;;;;;25.33;11.47;;;;;;;0.85;100.00;99550.06;4989807;28;20046;-82
2021/11/30 03:44:40;;;;;;;26.13;13.47;;;;;;;0.83;100.00;99551.78;4976657;28;20041;-81
2021/11/30 03:47:07;;;;;;;23.87;11.27;;;;;;;0.92;100.00;99536.19;5006749;28;20065;-82
2021/11/30 03:49:34;;;;;;;23.53;12.30;;;;;;;0.86;100.00;99538.81;4985174;28;20042;-82
2021/11/30 03:52:04;;;;;;;27.97;14.17;;;;;;;0.84;100.00;99524.91;4989340;28;20072;-79
2021/11/30 03:54:31;;;;;;;26.40;13.37;;;;;;;0.91;100.00;99515.38;5011594;28;20045;-82
2021/11/30 03:56:58;;;;;;;26.00;13.83;;;;;;;0.91;100.00;99500.66;5002856;28;20487;-82
2021/11/30 03:59:25;;;;;;;26.37;13.43;;;;;;;0.89;100.00;99497.19;5007643;28;20454;-83
2021/11/30 04:01:52;;;;;;;25.03;12.77;;;;;;;0.90;100.00;99491.13;5005904;28;20053;-81
2021/11/30 04:04:21;;;;;;;27.73;13.43;;;;;;;0.81;100.00;99486.78;4990242;28;20038;-81
2021/11/30 04:06:52;;;;;;;25.57;13.30;;;;;;;0.91;100.00;99472.06;4994972;28;20648;-82
2021/11/30 04:09:19;;;;;;;26.33;13.67;;;;;;;0.81;100.00;99466.00;4967097;28;20046;-80
2021/11/30 04:11:47;;;;;;;29.63;13.53;;;;;;;0.85;100.00;99453.88;4989568;28;20064;-82
2021/11/30 04:14:15;;;;;;;27.87;13.40;;;;;;;0.89;100.00;99440.00;4999239;28;20045;-81
2021/11/30 04:16:42;;;;;;;26.53;13.90;;;;;;;0.88;100.00;99446.06;4969173;28;20581;-81
2021/11/30 04:19:10;;;;;;;25.83;13.67;;;;;;;0.88;100.00;99440.88;4967424;28;20506;-82
2021/11/30 04:21:36;;;;;;;27.93;14.93;;;;;;;0.87;100.00;99427.88;4977826;28;20038;-82
2021/11/30 04:24:03;;;;;;;25.97;13.77;;;;;;;0.92;100.00;99411.38;4968878;28;20050;-82
2021/11/30 04:26:30;;;;;;;26.80;13.77;;;;;;;0.91;100.00;99414.84;4991435;28;20618;-82
2021/11/30 04:28:57;;;;;;;30.03;15.57;;;;;;;0.91;100.00;99403.59;4978072;28;20037;-82
2021/11/30 04:31:24;;;;;;;27.67;14.13;;;;;;;0.91;100.00;99407.03;4998687;28;20100;-83
2021/11/30 04:33:51;;;;;;;27.37;14.10;;;;;;;0.96;100.00;99400.13;4982048;28;20512;-83
2021/11/30 04:36:18;;;;;;;31.67;15.03;;;;;;;0.92;100.00;99376.72;5006979;28;20045;-83
2021/11/30 04:38:44;;;;;;;26.73;13.37;;;;;;;0.93;100.00;99375.88;4991154;28;20050;-83
2021/11/30 04:41:14;;;;;;;39.20;15.53;;;;;;;0.89;100.00;99367.19;4988471;28;20531;-84
2021/11/30 04:43:41;;;;;;;30.43;14.83;;;;;;;0.93;100.00;99360.25;4988832;28;20065;-83
2021/11/30 04:46:14;;;;;;;30.83;15.43;;;;;;;0.99;100.00;99352.44;5004703;28;20088;-82
2021/11/30 04:48:43;;;;;;;25.57;14.47;;;;;;;0.95;100.00;99351.59;5007636;28;20050;-83
2021/11/30 04:51:12;;;;;;;31.53;15.27;;;;;;;0.96;100.00;99353.31;4984115;28;20042;-83
2021/11/30 04:53:43;;;;;;;28.07;14.20;;;;;;;0.95;100.00;99350.72;4995956;28;20056;-83
2021/11/30 04:56:13;;;;;;;32.93;15.73;;;;;;;0.92;100.00;99341.16;4971820;28;20046;-82
2021/11/30 04:58:40;;;;;;;28.90;14.67;;;;;;;0.98;100.00;99317.75;4993357;28;20045;-83
2021/11/30 05:01:07;;;;;;;27.07;13.87;;;;;;;0.99;100.00;99310.81;4976889;28;20045;-81
2021/11/30 05:03:34;;;;;;;28.53;15.33;;;;;;;0.99;100.00;99308.22;4989469;28;20643;-81
2021/11/30 05:06:02;;;;;;;30.60;15.40;;;;;;;0.94;100.00;99300.44;4986122;28;20383;-81
2021/11/30 05:08:30;;;;;;;31.03;15.30;;;;;;;0.90;100.00;99290.91;5001831;28;20046;-83
2021/11/30 05:10:57;;;;;;;23.83;13.87;;;;;;;0.90;100.00;99284.84;4993332;28;20042;-84
2021/11/30 05:13:23;;;;;;;29.57;15.60;;;;;;;0.92;100.00;99283.97;4985794;28;20042;-82
2021/11/30 05:15:50;;;;;;;26.93;14.13;;;;;;;0.90;100.00;99277.91;4996709;28;20120;-83
2021/11/30 05:18:17;;;;;;;27.23;15.23;;;;;;;0.92;100.00;99264.91;4985139;28;20050;-82
2021/11/30 05:20:45;;;;;;;29.70;15.47;;;;;;;0.91;100.00;99265.78;5006833;28;20045;-82
2021/11/30 05:23:14;;;;;;;29.33;14.30;;;;;;;0.92;100.00;99247.56;4999280;28;20054;-83
2021/11/30 05:25:42;;;;;;;28.17;15.27;;;;;;;0.92;100.00;99237.16;4989730;28;20377;-83
2021/11/30 05:28:10;;;;;;;29.73;14.97;;;;;;;0.94;100.00;99229.38;5013682;28;20046;-82
2021/11/30 05:30:37;;;;;;;29.00;15.73;;;;;;;0.89;100.00;99232.00;4984935;28;20047;-83
2021/11/30 05:33:08;;;;;;;29.20;15.73;;;;;;;0.96;100.00;99225.88;5008629;28;20491;-82
2021/11/30 05:35:35;;;;;;;27.70;15.40;;;;;;;0.95;100.00;99210.31;4978678;28;20073;-84
2021/11/30 05:38:02;;;;;;;34.70;16.37;;;;;;;1.01;100.00;99211.16;4987806;28;20033;-82
2021/11/30 05:40:32;;;;;;;29.27;15.60;;;;;;;0.98;100.00;99205.94;5000688;28;20070;-82
2021/11/30 05:42:59;;;;;;;34.27;15.97;;;;;;;0.99;100.00;99193.81;5009964;28;20056;-82
2021/11/30 05:45:26;;;;;;;28.77;14.83;;;;;;;0.98;100.00;99186.88;4997297;28;20049;-83
2021/11/30 05:47:53;;;;;;;28.53;15.10;;;;;;;0.95;100.00;99174.75;4991404;28;20050;-83
2021/11/30 05:50:20;;;;;;;33.70;16.43;;;;;;;1.02;100.00;99160.00;4987090;28;20041;-82
2021/11/30 05:52:46;;;;;;;29.93;15.03;;;;;;;0.98;100.00;99158.28;5011162;28;20502;-82
2021/11/30 05:55:13;;;;;;;31.17;15.20;;;;;;;1.02;100.00;99147.00;4974211;28;20046;-82
2021/11/30 05:57:40;;;;;;;31.10;14.67;;;;;;;1.04;100.00;99142.63;5004764;28;20050;-83
2021/11/30 06:00:08;;;;;;;28.07;13.70;;;;;;;1.05;100.00;99131.34;4988406;28;20034;-83
2021/11/30 06:02:51;;;;;;;25.10;13.17;;;;;;;1.11;100.00;99113.13;4986040;28;20046;-82
2021/11/30 06:05:18;;;;;;;26.50;14.10;;;;;;;1.09;100.00;99097.53;5002983;28;20066;-84
2021/11/30 06:07:45;;;;;;;29.83;14.80;;;;;;;1.10;100.00;99094.06;4995029;28;20061;-84
2021/11/30 06:10:11;;;;;;;24.33;13.13;;;;;;;1.10;100.00;99098.38;5027503;28;20037;-83
2021/11/30 06:12:38;;;;;;;26.33;13.63;;;;;;;1.09;100.00;99081.94;5008632;28;20066;-83
2021/11/30 06:15:05;;;;;;;26.73;12.90;;;;;;;1.10;100.00;99064.59;4988569;28;20412;-81
2021/11/30 06:17:32;;;;;;;27.03;12.17;;;;;;;1.07;100.00;99062.84;5015300;28;20135;-82
2021/11/30 06:19:59;;;;;;;25.97;12.20;;;;;;;1.08;100.00;99054.16;4985824;28;20057;-83
2021/11/30 06:22:26;;;;;;;28.40;13.17;;;;;;;1.06;100.00;99045.53;4997987;28;20627;-83
2021/11/30 06:24:53;;;;;;;20.40;11.23;;;;;;;1.04;100.00;99043.81;4968040;28;20046;-83
2021/11/30 06:27:19;;;;;;;19.90;11.97;;;;;;;1.04;100.00;99015.22;4967431;28;20037;-82
2021/11/30 06:29:46;;;;;;;23.63;12.23;;;;;;;1.06;100.00;99024.72;5003470;28;20514;-84
2021/11/30 06:32:13;;;;;;;19.70;10.83;;;;;;;0.99;100.00;99015.25;4977219;28;20052;-84
2021/11/30 06:34:39;;;;;;;18.90;10.57;;;;;;;1.03;100.00;99003.09;4957780;28;20037;-83
2021/11/30 06:37:09;;;;;;;19.23;10.57;;;;;;;0.99;100.00;99002.22;4984394;28;20057;-82
2021/11/30 06:39:36;;;;;;;20.27;10.70;;;;;;;0.99;100.00;98996.19;4978391;28;20569;-83
2021/11/30 06:42:03;;;;;;;19.57;10.37;;;;;;;1.06;100.00;98988.31;4986460;28;20046;-83
2021/11/30 06:44:35;;;;;;;20.10;9.77;;;;;;;1.06;100.00;98982.25;4958983;28;20057;-83
2021/11/30 06:47:03;;;;;;;20.23;10.90;;;;;;;1.04;100.00;98963.19;4960947;28;20541;-82
2021/11/30 06:49:30;;;;;;;18.13;9.77;;;;;;;1.09;100.00;98953.59;4978254;28;20085;-83
2021/11/30 06:51:56;;;;;;;17.57;9.13;;;;;;;1.08;100.00;98954.47;4996167;28;20422;-82
2021/11/30 06:54:23;;;;;;;18.87;9.40;;;;;;;1.07;100.00;98942.34;4962696;28;20061;-82
2021/11/30 06:56:50;;;;;;;19.10;9.47;;;;;;;1.05;100.00;98941.53;4998335;28;21501;-83
2021/11/30 06:59:17;;;;;;;17.67;9.60;;;;;;;1.03;100.00;98917.28;4981620;28;20046;-83
2021/11/30 07:01:44;;;;;;;18.90;9.67;;;;;;;1.03;100.00;98919.88;4991702;28;20470;-83
2021/11/30 07:04:11;;;;;;;17.60;9.53;;;;;;;1.04;100.00;98916.41;4989681;28;20041;-84
2021/11/30 07:14:09;;;;;;;16.00;8.50;;;;;;;1.07;100.00;98905.94;4996772;28;20042;-84
2021/11/30 07:16:36;;;;;;;18.13;10.70;;;;;;;1.06;100.00;98888.63;4980952;28;20097;-85
2021/11/30 07:19:04;;;;;;;17.33;11.63;;;;;;;1.07;100.00;98886.00;4958788;28;20069;-87
2021/11/30 07:21:31;;;;;;;14.00;8.67;;;;;;;1.04;100.00;98877.38;4980690;28;20052;-85
2021/11/30 07:23:59;;;;;;;16.67;9.37;;;;;;;1.04;100.00;98869.59;5001428;28;20165;-87
2021/11/30 07:26:26;;;;;;;13.57;7.80;;;;;;;1.00;100.00;98873.09;4982662;28;20466;-85
2021/11/30 07:28:53;;;;;;;10.97;7.33;;;;;;;1.02;100.00;98873.94;4983693;28;20100;-85
2021/11/30 07:31:20;;;;;;;13.33;8.67;;;;;;;1.05;100.00;98866.97;4994212;28;20129;-87
2021/11/30 07:33:48;;;;;;;15.40;9.80;;;;;;;1.04;100.00;98862.66;4983375;28;20495;-86
2021/11/30 07:36:16;;;;;;;13.50;7.57;;;;;;;1.04;100.00;98856.59;5004872;28;20561;-84
2021/11/30 07:38:46;;;;;;;11.83;6.90;;;;;;;0.98;100.00;98841.91;4998723;28;20392;-84
2021/11/30 07:41:14;;;;;;;10.67;6.53;;;;;;;0.97;100.00;98839.31;4976665;28;20048;-86
2021/11/30 07:43:40;;;;;;;12.13;7.27;;;;;;;0.93;100.00;98827.25;4975979;28;20100;-86
2021/11/30 07:46:07;;;;;;;9.77;6.03;;;;;;;0.93;100.00;98829.84;4994970;28;20511;-84
2021/11/30 07:48:34;;;;;;;8.13;5.47;;;;;;;0.96;100.00;98824.59;4985756;28;20112;-84
2021/11/30 07:51:02;;;;;;;10.23;6.10;;;;;;;0.96;100.00;98812.47;4988749;28;20548;-84
2021/11/30 07:53:29;;;;;;;10.87;6.03;;;;;;;0.99;100.00;98802.03;5008344;28;20076;-85
2021/11/30 07:55:56;;;;;;;10.80;6.43;;;;;;;1.03;100.00;98805.47;4966670;28;20049;-86
2021/11/30 07:58:23;;;;;;;10.23;6.10;;;;;;;1.01;100.00;98800.28;4976330;28;20093;-84
2021/11/30 08:00:51;;;;;;;9.13;5.93;;;;;;;1.04;100.00;98795.03;4993873;28;20459;-85
2021/11/30 08:03:18;;;;;;;9.00;5.50;;;;;;;1.07;100.00;98792.38;4988921;28;20104;-86
2021/11/30 08:05:45;;;;;;;9.60;5.33;;;;;;;1.04;100.00;98771.63;5032372;23;20341;-86
2021/11/30 08:08:12;;;;;;;9.67;6.17;;;;;;;1.07;100.00;98768.13;4958160;28;20094;-86
2021/11/30 08:10:38;;;;;;;9.23;5.80;;;;;;;1.10;100.00;98765.50;4991926;28;20455;-85
2021/11/30 08:13:07;;;;;;;9.00;5.47;;;;;;;1.14;100.00;98754.16;4979488;28;20641;-87
2021/11/30 08:15:36;;;;;;;9.03;5.30;;;;;;;1.17;100.00;98753.25;4972788;28;20125;-86
2021/11/30 08:18:04;;;;;;;9.93;5.87;;;;;;;1.17;100.00;98741.09;4959570;28;20579;-87
2021/11/30 08:20:32;;;;;;;8.80;5.50;;;;;;;1.22;100.00;98741.91;4971457;28;20578;-85
2021/11/30 08:22:59;;;;;;;7.47;5.13;;;;;;;1.22;100.00;98731.50;4967217;28;20043;-84
2021/11/30 08:25:26;;;;;;;25.03;14.97;;;;;;;1.20;100.00;98732.44;4992862;28;20046;-83
2021/11/30 08:27:53;;;;;;;9.60;6.23;;;;;;;1.25;100.00;98722.81;4977785;28;20090;-83
2021/11/30 08:30:40;;;;;;;10.03;6.00;;;;;;;1.27;100.00;98732.31;4966770;28;20088;-83
2021/11/30 08:33:07;;;;;;;15.47;12.43;;;;;;;1.25;100.00;98725.41;4969031;28;20106;-84
2021/11/30 08:35:35;;;;;;;10.83;6.37;;;;;;;1.24;100.00;98723.69;4982115;28;20070;-84
2021/11/30 08:38:05;;;;;;;9.33;5.10;;;;;;;1.21;100.00;98713.34;4984048;28;20039;-83
2021/11/30 08:40:32;;;;;;;8.93;6.33;;;;;;;1.25;100.00;98697.66;4987032;28;20361;-84
2021/11/30 08:43:00;;;;;;;9.47;5.40;;;;;;;1.28;100.00;98692.41;4974031;28;20065;-84
2021/11/30 08:45:27;;;;;;;7.97;5.10;;;;;;;1.27;100.00;98693.31;4991736;28;20061;-83
2021/11/30 08:47:54;;;;;;;7.27;4.73;;;;;;;1.33;100.00;98702.75;4976079;28;20097;-83
2021/11/30 08:50:21;;;;;;;6.20;4.20;;;;;;;1.35;100.00;98690.59;4954672;28;20046;-83
2021/11/30 08:52:49;;;;;;;7.17;4.97;;;;;;;1.34;100.00;98675.84;4998352;28;20137;-83
2021/11/30 08:55:16;;;;;;;6.70;4.87;;;;;;;1.37;100.00;98681.88;4983858;28;20043;-83
2021/11/30 08:57:43;;;;;;;7.50;5.17;;;;;;;1.40;100.00;98678.34;4987122;28;20054;-83
2021/11/30 09:00:16;;;;;;;7.40;4.33;;;;;;;1.38;100.00;98682.72;4990727;28;20038;-84
2021/11/30 09:02:43;;;;;;;7.27;4.97;;;;;;;1.41;100.00;98682.69;4970994;28;20051;-84
2021/11/30 09:05:11;;;;;;;6.87;4.37;;;;;;;1.46;100.00;98675.66;4970559;28;20034;-83
2021/11/30 09:07:37;;;;;;;6.23;4.93;;;;;;;1.46;100.00;98665.25;4968671;28;20061;-85
2021/11/30 09:10:06;;;;;;;8.33;5.20;;;;;;;1.50;100.00;98656.50;4979323;28;20054;-84
2021/11/30 09:12:33;;;;;;;9.60;5.23;;;;;;;1.50;100.00;98666.91;4958808;28;20074;-84
2021/11/30 09:15:00;;;;;;;7.97;5.80;;;;;;;1.48;100.00;98673.91;4982560;28;20510;-85
2021/11/30 09:17:52;;;;;;;8.50;5.47;;;;;;;1.52;100.00;98679.94;4937239;28;20085;-85
2021/11/30 09:20:19;;;;;;;7.80;5.40;;;;;;;1.52;100.00;98670.38;4988838;28;20069;-87
2021/11/30 09:22:46;;;;;;;8.40;5.50;;;;;;;1.59;100.00;98665.91;4962083;28;20051;-86
2021/11/30 09:25:13;;;;;;;7.73;5.37;;;;;;;1.68;100.00;98663.16;4978462;28;20035;-86
2021/11/30 09:27:39;;;;;;;7.40;4.97;;;;;;;1.66;100.00;98660.56;4967944;28;20043;-86
2021/11/30 09:30:09;;;;;;;6.70;4.60;;;;;;;1.71;100.00;98670.94;4949850;28;20047;-87
2021/11/30 09:32:36;;;;;;;6.70;5.40;;;;;;;1.76;100.00;98648.25;4983257;28;20054;-86
2021/11/30 09:35:11;;;;;;;6.83;4.77;;;;;;;1.80;100.00;98649.09;4963054;28;20097;-86
2021/11/30 09:37:39;;;;;;;7.15;5.35;;;;;;;1.86;100.00;98644.63;4944708;28;20053;-86
2021/11/30 09:40:09;;;;;;;6.23;4.80;;;;;;;1.89;100.00;98634.16;4959000;28;20043;-86
2021/11/30 09:42:36;;;;;;;6.97;4.73;;;;;;;1.98;100.00;98625.31;4943005;29;20264;-86
2021/11/30 09:45:05;;;;;;;6.33;4.80;;;;;;;2.04;100.00;98617.41;4974741;28;20089;-84
2021/11/30 09:47:33;;;;;;;5.63;4.53;;;;;;;2.07;100.00;98621.69;4981758;28;20049;-85
2021/11/30 09:50:00;;;;;;;6.90;4.80;;;;;;;2.13;100.00;98608.53;4976911;28;20043;-84
2021/11/30 09:52:27;;;;;;;6.10;5.00;;;;;;;2.23;100.00;98600.50;4984490;28;20039;-84
2021/11/30 09:54:55;;;;;;;7.30;5.07;;;;;;;2.29;100.00;98598.69;4953924;28;20099;-84
2021/11/30 09:57:22;;;;;;;7.13;4.80;;;;;;;2.30;100.00;98587.38;4978664;28;20075;-85
2021/11/30 09:59:49;;;;;;;6.33;4.90;;;;;;;2.35;100.00;98596.78;4981163;28;20046;-85
2021/11/30 10:02:16;;;;;;;6.73;5.33;;;;;;;2.41;100.00;98586.25;4953258;28;20062;-85
2021/11/30 10:04:43;;;;;;;6.50;5.07;;;;;;;2.47;100.00;98578.31;4930500;28;20035;-85
2021/11/30 10:07:10;;;;;;;6.70;5.73;;;;;;;2.50;100.00;98579.97;4975515;28;20049;-86
2021/11/30 10:09:37;;;;;;;8.17;6.00;;;;;;;2.56;100.00;98576.41;4956414;28;20042;-86
2021/11/30 10:12:07;;;;;;;7.43;5.80;;;;;;;2.60;100.00;98572.81;4957472;28;20046;-86
2021/11/30 10:14:36;;;;;;;7.17;5.53;;;;;;;2.63;100.00;98565.81;4980564;28;20039;-86
2021/11/30 10:17:09;;;;;;;8.20;5.03;;;;;;;2.62;100.00;98561.50;4968687;28;20046;-85
2021/11/30 10:19:36;;;;;;;7.20;5.00;;;;;;;2.65;100.00;98566.63;4975757;28;20043;-85
2021/11/30 10:22:03;;;;;;;7.60;5.47;;;;;;;2.63;100.00;98550.16;4954137;28;20110;-84
2021/11/30 10:24:30;;;;;;;8.07;4.80;;;;;;;2.72;100.00;98563.00;4953323;28;20498;-84
2021/11/30 10:26:57;;;;;;;6.43;4.53;;;;;;;2.82;100.00;98564.50;4977055;28;20039;-84
2021/11/30 10:29:24;;;;;;;5.87;4.60;;;;;;;2.89;100.00;98553.94;4957988;28;20046;-86
2021/11/30 10:31:53;;;;;;;5.97;3.83;;;;;;;2.87;100.00;98547.91;4942756;28;20435;-87
2021/11/30 10:34:28;;;;;;;5.97;4.03;;;;;;;2.96;100.00;98545.06;4943260;28;20047;-85
2021/11/30 10:37:00;;;;;;;5.13;3.70;;;;;;;2.87;100.00;98540.94;4966618;28;20038;-86
2021/11/30 10:39:31;;;;;;;4.27;3.13;;;;;;;2.88;100.00;98547.84;4974110;28;20429;-86
2021/11/30 10:42:19;;;;;;;4.70;3.90;;;;;;;2.95;100.00;98551.19;4959680;28;20074;-86
2021/11/30 10:44:47;;;;;;;6.53;4.13;;;;;;;2.98;100.00;98546.75;4973363;28;20042;-86
2021/11/30 10:47:17;;;;;;;4.40;2.90;;;;;;;2.93;100.00;98545.13;4988828;28;20077;-86
2021/11/30 10:49:57;;;;;;;3.70;3.00;;;;;;;3.02;100.00;98550.97;4958623;28;20054;-85
2021/11/30 10:52:26;;;;;;;4.47;3.23;;;;;;;3.01;100.00;98538.84;4975564;28;20046;-85
2021/11/30 10:55:14;;;;;;;3.30;2.63;;;;;;;3.04;100.00;98535.31;4971542;28;20098;-86
2021/11/30 10:57:43;;;;;;;5.33;3.30;;;;;;;3.10;100.00;98537.75;4974433;28;20042;-86
2021/11/30 11:00:11;;;;;;;4.60;3.60;;;;;;;3.06;100.00;98550.03;4977294;28;20153;-86
2021/11/30 11:03:01;;;;;;;7.70;3.70;;;;;;;3.22;100.00;98537.47;4987603;28;20042;-85
2021/11/30 11:05:29;;;;;;;3.50;2.60;;;;;;;3.27;100.00;98537.34;4987485;28;20086;-87
2021/11/30 11:08:06;;;;;;;4.63;2.73;;;;;;;3.23;100.00;98544.41;4983121;28;20352;-85
2021/11/30 11:10:35;;;;;;;5.30;4.77;;;;;;;3.27;100.00;98545.16;4985058;28;20504;-84
2021/11/30 11:13:30;;;;;;;5.20;3.20;;;;;;;3.42;100.00;98528.28;4986201;28;20038;-86
2021/11/30 11:16:00;;;;;;;5.03;2.90;;;;;;;3.43;100.00;98525.63;4962992;28;20057;-87
2021/11/30 11:18:33;;;;;;;4.00;3.07;;;;;;;3.45;100.00;98516.00;4976442;28;20042;-86
2021/11/30 11:21:29;;;;;;;5.03;3.13;;;;;;;3.57;100.00;98515.69;4969880;28;20051;-85
2021/11/30 11:24:06;;;;;;;3.70;2.40;;;;;;;3.66;100.00;98519.78;4961929;28;20046;-86
2021/11/30 11:26:47;;;;;;;3.47;2.80;;;;;;;3.67;100.00;98531.94;4973589;28;20389;-86
2021/11/30 11:29:19;;;;;;;4.53;3.10;;;;;;;3.72;100.00;98506.59;4943334;28;20042;-85
2021/11/30 11:31:49;;;;;;;5.87;3.00;;;;;;;3.73;100.00;98504.81;4976116;28;20170;-86
2021/11/30 11:34:18;;;;;;;5.37;2.87;;;;;;;3.75;100.00;98488.22;4942474;28;20051;-85
2021/11/30 11:36:46;;;;;;;4.30;2.87;;;;;;;3.76;100.00;98478.63;4979614;28;20039;-85
2021/11/30 11:39:17;;;;;;;4.97;3.73;;;;;;;3.79;100.00;98474.19;4955371;28;20519;-85
2021/11/30 11:41:48;;;;;;;6.03;2.93;;;;;;;3.83;100.00;98475.78;4970288;28;20047;-86
2021/11/30 11:44:14;;;;;;;9.20;6.13;;;;;;;3.89;100.00;98474.78;4964535;28;20050;-85
2021/11/30 11:46:41;;;;;;;13.10;10.87;;;;;;;3.93;100.00;98471.16;4964212;28;20409;-85